createdAt,value
2018-06-04T00:00:31.321Z,65.30
2018-06-04T00:03:00.903Z,65.40
2018-06-04T00:05:29.733Z,65.70
2018-06-04T00:07:58.581Z,66.40
2018-06-04T00:10:27.418Z,66.50
2018-06-04T00:12:56.260Z,67.10
2018-06-04T00:15:25.083Z,67.50
2018-06-04T00:17:53.922Z,67.50
2018-06-04T00:20:22.757Z,67.30
2018-06-04T00:22:51.595Z,68.00
2018-06-04T00:25:20.427Z,67.50
2018-06-04T00:27:50.006Z,67.70
2018-06-04T00:30:18.859Z,68.00
2018-06-04T00:32:47.702Z,69.20
2018-06-04T00:35:16.555Z,68.90
2018-06-04T00:37:45.393Z,69.10
2018-06-04T00:40:14.963Z,69.30
2018-06-04T00:42:43.802Z,69.40
2018-06-04T00:45:12.706Z,69.40
2018-06-04T00:47:41.476Z,69.80
2018-06-04T00:50:10.323Z,70.10
2018-06-04T00:52:39.163Z,69.90
2018-06-04T00:55:07.998Z,70.30
2018-06-04T00:57:36.844Z,70.40
2018-06-04T01:00:05.683Z,70.40
2018-06-04T01:02:35.248Z,70.70
2018-06-04T01:05:04.094Z,71.00
2018-06-04T01:07:32.933Z,71.00
2018-06-04T01:10:01.775Z,71.30
2018-06-04T01:12:30.626Z,71.30
2018-06-04T01:14:59.463Z,71.50
2018-06-04T01:17:28.311Z,72.20
2018-06-04T01:19:57.145Z,72.30
2018-06-04T01:22:25.993Z,72.30
2018-06-04T01:24:54.839Z,72.20
2018-06-04T01:27:23.684Z,72.40
2018-06-04T01:29:53.278Z,72.60
2018-06-04T01:32:22.121Z,72.60
2018-06-04T01:34:51.001Z,72.90
2018-06-04T01:37:20.565Z,73.10
2018-06-04T01:39:49.400Z,73.30
2018-06-04T01:42:18.251Z,73.60
2018-06-04T01:44:47.098Z,73.70
2018-06-04T01:47:15.952Z,73.70
2018-06-04T01:49:44.792Z,74.00
2018-06-04T01:52:13.631Z,74.20
2018-06-04T01:54:42.466Z,74.40
2018-06-04T01:57:11.315Z,74.30
2018-06-04T01:59:40.152Z,74.50
2018-06-04T02:02:08.992Z,74.60
2018-06-04T02:04:37.837Z,75.00
2018-06-04T02:07:06.677Z,74.90
2018-06-04T02:09:35.527Z,75.30
2018-06-04T02:12:04.368Z,75.20
2018-06-04T02:14:33.204Z,75.20
2018-06-04T02:17:02.076Z,75.40
2018-06-04T02:19:30.924Z,75.50
2018-06-04T02:21:59.776Z,75.20
2018-06-04T02:24:28.633Z,75.40
2018-06-04T02:26:57.487Z,75.40
2018-06-04T02:29:26.330Z,75.50
2018-06-04T02:31:55.192Z,75.50
2018-06-04T02:34:24.039Z,75.80
2018-06-04T02:36:52.878Z,76.10
2018-06-04T02:39:21.726Z,75.60
2018-06-04T02:41:51.319Z,75.60
2018-06-04T02:44:20.908Z,75.50
2018-06-04T02:46:49.759Z,75.30
2018-06-04T02:49:18.596Z,75.30
2018-06-04T02:51:47.458Z,75.20
2018-06-04T02:54:16.297Z,75.50
2018-06-04T02:56:45.177Z,75.30
2018-06-04T02:59:13.984Z,75.50
2018-06-04T03:01:42.833Z,75.60
2018-06-04T03:04:11.685Z,75.80
2018-06-04T03:06:40.534Z,75.90
2018-06-04T03:09:10.388Z,76.00
2018-06-04T03:11:39.237Z,75.90
2018-06-04T03:14:08.819Z,76.10
2018-06-04T03:16:37.678Z,75.60
2018-06-04T03:19:06.532Z,75.40
2018-06-04T03:21:35.374Z,75.30
2018-06-04T03:24:04.212Z,75.40
2018-06-04T03:26:33.062Z,76.10
2018-06-04T03:29:01.909Z,76.20
2018-06-04T03:31:30.746Z,76.30
2018-06-04T03:33:59.603Z,76.50
2018-06-04T03:36:28.437Z,76.60
2018-06-04T03:38:58.018Z,76.60
2018-06-04T03:41:26.853Z,76.90
2018-06-04T03:43:55.692Z,77.40
2018-06-04T03:46:24.540Z,77.00
2018-06-04T03:48:53.385Z,77.20
2018-06-04T03:51:22.238Z,77.20
2018-06-04T03:53:51.080Z,77.20
2018-06-04T03:56:19.935Z,77.40
2018-06-04T03:58:48.772Z,77.40
2018-06-04T04:01:17.620Z,77.80
2018-06-04T04:03:46.452Z,77.70
2018-06-04T04:06:15.298Z,77.80
2018-06-04T04:08:44.135Z,77.70
2018-06-04T04:11:12.974Z,78.10
2018-06-04T04:13:41.808Z,77.80
2018-06-04T04:16:10.654Z,78.10
2018-06-04T04:18:39.493Z,78.10
2018-06-04T04:21:08.333Z,78.10
2018-06-04T04:23:37.168Z,78.30
2018-06-04T04:26:06.015Z,78.50
2018-06-04T04:28:34.854Z,78.40
2018-06-04T04:31:03.696Z,78.20
2018-06-04T04:33:32.538Z,78.20
2018-06-04T04:36:01.377Z,78.40
2018-06-04T04:38:30.232Z,78.30
2018-06-04T04:40:59.073Z,78.20
2018-06-04T04:43:28.655Z,78.40
2018-06-04T04:45:57.505Z,78.10
2018-06-04T04:48:26.354Z,78.50
2018-06-04T04:50:55.944Z,78.70
2018-06-04T04:53:24.789Z,78.40
2018-06-04T04:55:53.738Z,78.10
2018-06-04T04:58:22.577Z,78.20
2018-06-04T05:00:51.423Z,78.20
2018-06-04T05:03:20.276Z,78.10
2018-06-04T05:05:49.160Z,78.30
2018-06-04T05:08:17.964Z,78.30
2018-06-04T05:10:46.795Z,78.00
2018-06-04T05:13:15.643Z,78.20
2018-06-04T05:15:44.501Z,78.00
2018-06-04T05:18:13.326Z,78.00
2018-06-04T05:20:42.917Z,78.20
2018-06-04T05:23:11.772Z,78.80
2018-06-04T05:25:40.617Z,78.20
2018-06-04T05:28:09.461Z,78.10
2018-06-04T05:30:38.299Z,78.10
2018-06-04T05:33:07.891Z,78.20
2018-06-04T05:35:36.732Z,77.60
2018-06-04T05:38:05.585Z,77.60
2018-06-04T05:40:34.439Z,77.20
2018-06-04T05:43:03.272Z,77.10
2018-06-04T05:45:32.866Z,77.20
2018-06-04T05:48:01.746Z,77.20
2018-06-04T05:50:30.599Z,77.20
2018-06-04T05:52:59.449Z,76.70
2018-06-04T05:55:29.037Z,76.70
2018-06-04T05:57:57.913Z,76.00
2018-06-04T06:00:26.721Z,75.20
2018-06-04T06:02:55.571Z,75.00
2018-06-04T06:05:24.408Z,75.10
2018-06-04T06:07:53.997Z,74.50
2018-06-04T06:10:22.863Z,75.10
2018-06-04T06:12:51.698Z,74.60
2018-06-04T06:15:21.294Z,74.20
2018-06-04T06:17:50.151Z,73.90
2018-06-04T06:20:18.996Z,73.80
2018-06-04T06:22:47.857Z,73.70
2018-06-04T06:25:16.695Z,73.40
2018-06-04T06:27:45.535Z,73.30
2018-06-04T06:30:14.376Z,73.00
2018-06-04T06:32:43.245Z,73.50
2018-06-04T06:35:12.093Z,73.70
2018-06-04T06:37:41.001Z,73.80
2018-06-04T06:40:09.790Z,73.30
2018-06-04T06:42:38.626Z,73.00
2018-06-04T06:45:07.460Z,72.20
2018-06-04T06:50:05.803Z,71.70
2018-06-04T06:52:35.340Z,72.30
2018-06-04T06:55:04.182Z,71.50
2018-06-04T06:57:33.038Z,71.60
2018-06-04T07:00:02.631Z,71.60
2018-06-04T07:02:31.481Z,71.30
2018-06-04T07:05:00.331Z,71.50
2018-06-04T07:07:29.209Z,71.30
2018-06-04T07:09:58.038Z,71.20
2018-06-04T07:12:26.889Z,71.40
2018-06-04T07:14:55.740Z,71.20
2018-06-04T07:17:24.588Z,71.00
2018-06-04T07:19:53.435Z,70.00
2018-06-04T07:22:22.285Z,69.60
2018-06-04T07:24:51.125Z,70.00
2018-06-04T07:27:19.976Z,69.60
2018-06-04T07:29:48.825Z,69.60
2018-06-04T07:32:18.407Z,69.80
2018-06-04T07:34:47.307Z,69.10
2018-06-04T07:37:16.115Z,68.70
2018-06-04T07:39:45.710Z,69.00
2018-06-04T07:42:14.557Z,68.90
2018-06-04T07:44:43.590Z,67.80
2018-06-04T07:47:12.445Z,67.80
2018-06-04T07:49:41.300Z,68.20
2018-06-04T07:52:10.157Z,67.10
2018-06-04T07:54:39.756Z,66.60
2018-06-04T07:57:08.617Z,66.60
2018-06-04T07:59:37.467Z,66.40
2018-06-04T08:02:06.307Z,65.30
2018-06-04T08:04:35.159Z,64.70
2018-06-04T08:07:04.023Z,64.50
2018-06-04T08:09:32.864Z,64.50
2018-06-04T08:12:01.708Z,63.90
2018-06-04T08:14:31.297Z,64.50
2018-06-04T08:17:00.136Z,64.00
2018-06-04T08:19:28.978Z,63.60
2018-06-04T08:21:57.839Z,64.30
2018-06-04T08:24:26.688Z,62.90
2018-06-04T08:26:55.526Z,63.60
2018-06-04T08:29:24.379Z,62.80
2018-06-04T08:31:53.221Z,62.80
2018-06-04T08:34:22.072Z,62.10
2018-06-04T08:36:50.923Z,62.20
2018-06-04T08:39:19.760Z,62.60
2018-06-04T08:41:48.599Z,62.30
2018-06-04T08:44:17.440Z,61.80
2018-06-04T08:46:46.287Z,62.20
2018-06-04T08:49:15.126Z,61.60
2018-06-04T08:51:43.963Z,61.10
2018-06-04T08:54:12.834Z,61.20
2018-06-04T08:56:42.410Z,61.60
2018-06-04T08:59:11.262Z,60.90
2018-06-04T09:01:40.108Z,59.50
2018-06-04T09:04:09.695Z,60.00
2018-06-04T09:06:38.542Z,60.20
2018-06-04T09:09:07.392Z,59.80
2018-06-04T09:11:36.243Z,59.40
2018-06-04T09:14:05.090Z,59.50
2018-06-04T09:16:33.937Z,60.10
2018-06-04T09:19:02.772Z,59.90
2018-06-04T09:21:31.612Z,59.20
2018-06-04T09:24:00.473Z,59.00
2018-06-04T09:26:29.311Z,59.80
2018-06-04T09:28:58.166Z,58.40
2018-06-04T09:31:27.014Z,57.40
2018-06-04T09:33:56.600Z,57.80
2018-06-04T09:36:25.587Z,57.90
2018-06-04T09:38:55.186Z,58.30
2018-06-04T09:41:24.071Z,57.40
2018-06-04T09:43:52.884Z,59.20
2018-06-04T09:46:22.478Z,58.60
2018-06-04T09:48:52.072Z,58.30
2018-06-04T09:51:20.926Z,57.00
2018-06-04T09:53:49.774Z,57.60
2018-06-04T09:56:18.615Z,57.40
2018-06-04T09:58:47.461Z,56.80
2018-06-04T10:01:16.314Z,57.30
2018-06-04T10:03:45.161Z,57.20
2018-06-04T10:06:14.168Z,56.40
2018-06-04T10:08:42.994Z,56.40
2018-06-04T10:11:11.834Z,56.50
2018-06-04T10:13:40.667Z,56.50
2018-06-04T10:16:09.498Z,55.70
2018-06-04T10:18:38.333Z,56.00
2018-06-04T10:21:07.174Z,56.60
2018-06-04T10:23:36.006Z,56.10
2018-06-04T10:26:04.832Z,55.80
2018-06-04T10:28:33.674Z,55.70
2018-06-04T10:31:02.507Z,55.30
2018-06-04T10:33:31.383Z,54.20
2018-06-04T10:36:00.221Z,55.50
2018-06-04T10:38:29.052Z,54.20
2018-06-04T10:40:57.882Z,53.70
2018-06-04T10:43:27.457Z,53.60
2018-06-04T10:45:56.281Z,53.90
2018-06-04T10:48:25.124Z,53.70
2018-06-04T10:50:53.959Z,53.50
2018-06-04T10:53:23.038Z,52.70
2018-06-04T10:58:21.317Z,52.50
2018-06-04T11:00:50.178Z,52.90
2018-06-04T11:03:19.022Z,51.40
2018-06-04T11:05:47.851Z,52.70
2018-06-04T11:08:16.689Z,50.20
2018-06-04T11:10:46.269Z,51.10
2018-06-04T11:13:15.117Z,49.70
2018-06-04T11:15:43.966Z,48.30
2018-06-04T11:18:13.546Z,49.60
2018-06-04T11:20:42.400Z,49.50
2018-06-04T11:23:11.457Z,49.10
2018-06-04T11:25:40.325Z,48.60
2018-06-04T11:28:09.135Z,48.70
2018-06-04T11:30:38.721Z,49.40
2018-06-04T11:33:07.549Z,48.10
2018-06-04T11:35:36.387Z,48.20
2018-06-04T11:38:05.225Z,48.80
2018-06-04T11:40:34.059Z,48.10
2018-06-04T11:43:02.896Z,47.00
2018-06-04T11:45:31.736Z,46.70
2018-06-04T11:48:00.574Z,46.70
2018-06-04T11:50:29.404Z,48.00
2018-06-04T11:52:58.249Z,47.90
2018-06-04T11:55:27.152Z,46.90
2018-06-04T11:57:55.961Z,47.40
2018-06-04T12:00:24.794Z,47.60
2018-06-04T12:02:53.623Z,46.80
2018-06-04T12:05:22.469Z,46.50
2018-06-04T12:07:51.304Z,45.30
2018-06-04T12:10:20.133Z,45.50
2018-06-04T12:12:48.966Z,44.20
2018-06-04T12:15:18.560Z,44.10
2018-06-04T12:17:48.148Z,44.90
2018-06-04T12:20:16.976Z,44.70
2018-06-04T12:22:45.818Z,44.90
2018-06-04T12:25:14.650Z,46.70
2018-06-04T12:27:43.483Z,45.50
2018-06-04T12:30:12.312Z,45.30
2018-06-04T12:32:41.895Z,46.00
2018-06-04T12:37:40.949Z,46.50
2018-06-04T12:40:10.489Z,46.30
2018-06-04T12:42:39.318Z,44.70
2018-06-04T12:45:08.905Z,44.90
2018-06-04T12:47:37.863Z,44.60
2018-06-04T12:50:06.633Z,43.10
2018-06-04T12:52:35.476Z,44.50
2018-06-04T12:55:04.368Z,46.30
2018-06-04T12:57:33.194Z,46.80
2018-06-04T13:00:02.063Z,46.70
2018-06-04T13:02:31.648Z,45.90
2018-06-04T13:05:00.489Z,44.80
2018-06-04T13:07:29.326Z,44.00
2018-06-04T13:09:58.161Z,43.80
2018-06-04T13:12:27.005Z,43.90
2018-06-04T13:14:55.848Z,44.60
2018-06-04T13:17:24.690Z,44.70
2018-06-04T13:19:53.522Z,44.90
2018-06-04T13:22:22.370Z,45.30
2018-06-04T13:24:51.236Z,45.50
2018-06-04T13:27:20.061Z,45.90
2018-06-04T13:29:48.905Z,46.20
2018-06-04T13:32:17.735Z,45.60
2018-06-04T13:34:47.309Z,44.40
2018-06-04T13:37:16.149Z,44.60
2018-06-04T13:39:44.990Z,44.20
2018-06-04T13:42:13.837Z,44.90
2018-06-04T13:44:42.681Z,45.30
2018-06-04T13:47:11.523Z,43.50
2018-06-04T13:49:40.366Z,44.10
2018-06-04T13:52:09.191Z,44.90
2018-06-04T13:54:38.034Z,42.90
2018-06-04T13:57:06.884Z,42.30
2018-06-04T13:59:35.718Z,42.00
2018-06-04T14:02:04.557Z,41.40
2018-06-04T14:04:33.397Z,40.80
2018-06-04T14:07:02.232Z,39.20
2018-06-04T14:09:31.068Z,38.90
2018-06-04T14:11:59.921Z,39.20
2018-06-04T14:14:28.778Z,38.60
2018-06-04T14:16:58.353Z,38.50
2018-06-04T14:21:57.393Z,38.90
2018-06-04T14:24:26.235Z,37.30
2018-06-04T14:26:55.069Z,37.10
2018-06-04T14:29:24.655Z,37.30
2018-06-04T14:31:53.498Z,36.80
2018-06-04T14:34:22.342Z,36.60
2018-06-04T14:36:51.186Z,36.10
2018-06-04T14:39:20.013Z,37.30
2018-06-04T14:41:48.859Z,37.10
2018-06-04T14:44:17.728Z,35.00
2018-06-04T14:46:47.292Z,36.00
2018-06-04T14:49:16.144Z,34.90
2018-06-04T14:51:44.969Z,35.50
2018-06-04T14:54:13.804Z,33.90
2018-06-04T14:56:42.648Z,34.60
2018-06-04T14:59:12.217Z,34.50
2018-06-04T15:01:41.041Z,34.70
2018-06-04T15:04:09.876Z,34.10
2018-06-04T15:06:38.701Z,33.50
2018-06-04T15:09:07.549Z,33.80
2018-06-04T15:11:36.396Z,33.90
2018-06-04T15:14:05.221Z,34.10
2018-06-04T15:16:35.057Z,35.50
2018-06-04T15:19:03.643Z,36.60
2018-06-04T15:21:32.471Z,33.50
2018-06-04T15:24:01.316Z,32.90
2018-06-04T15:26:30.150Z,33.30
2018-06-04T15:28:58.981Z,32.70
2018-06-04T15:31:27.850Z,32.60
2018-06-04T15:33:57.433Z,32.70
2018-06-04T15:36:26.923Z,31.30
2018-06-04T15:38:55.178Z,32.30
2018-06-04T15:41:24.014Z,33.00
2018-06-04T15:43:52.911Z,33.20
2018-06-04T15:46:21.697Z,32.70
2018-06-04T15:48:51.282Z,33.80
2018-06-04T15:51:20.125Z,34.30
2018-06-04T15:53:48.977Z,34.20
2018-06-04T15:56:17.806Z,33.80
2018-06-04T15:58:46.637Z,32.90
2018-06-04T16:01:15.472Z,33.70
2018-06-04T16:03:44.337Z,33.60
2018-06-04T16:06:13.446Z,32.80
2018-06-04T16:08:43.018Z,34.00
2018-06-04T16:11:11.852Z,34.20
2018-06-04T16:13:40.682Z,33.80
2018-06-04T16:16:09.516Z,33.70
2018-06-04T16:18:38.364Z,33.40
2018-06-04T16:21:07.214Z,33.50
2018-06-04T16:23:36.774Z,32.20
2018-06-04T16:26:05.616Z,32.30
2018-06-04T16:28:34.453Z,31.90
2018-06-04T16:31:03.287Z,31.80
2018-06-04T16:33:32.126Z,32.20
2018-06-04T16:36:00.968Z,33.00
2018-06-04T16:38:29.815Z,32.90
2018-06-04T16:40:58.642Z,32.80
2018-06-04T16:43:27.563Z,32.80
2018-06-04T16:45:57.112Z,32.30
2018-06-04T16:48:26.710Z,32.50
2018-06-04T16:50:55.551Z,33.10
2018-06-04T16:53:24.390Z,33.60
2018-06-04T16:55:53.976Z,34.50
2018-06-04T16:58:23.050Z,34.60
2018-06-04T17:00:51.896Z,34.50
2018-06-04T17:03:20.738Z,35.20
2018-06-04T17:05:49.572Z,35.10
2018-06-04T17:08:19.187Z,35.30
2018-06-04T17:10:48.311Z,36.20
2018-06-04T17:13:17.160Z,35.70
2018-06-04T17:15:45.990Z,35.90
2018-06-04T17:18:14.829Z,35.30
2018-06-04T17:20:43.656Z,35.90
2018-06-04T17:23:12.497Z,36.50
2018-06-04T17:25:41.316Z,36.90
2018-06-04T17:28:10.204Z,37.30
2018-06-04T17:30:38.992Z,37.20
2018-06-04T17:33:07.875Z,37.40
2018-06-04T17:35:36.673Z,37.10
2018-06-04T17:38:05.506Z,38.20
2018-06-04T17:40:34.337Z,37.70
2018-06-04T17:43:03.922Z,38.30
2018-06-04T17:48:02.930Z,38.60
2018-06-04T17:50:31.780Z,38.00
2018-06-04T17:53:00.627Z,38.40
2018-06-04T17:55:29.464Z,38.70
2018-06-04T17:57:58.324Z,38.60
2018-06-04T18:00:27.178Z,39.20
2018-06-04T18:02:56.026Z,38.70
2018-06-04T18:05:24.872Z,38.90
2018-06-04T18:07:54.452Z,39.10
2018-06-04T18:10:23.300Z,38.70
2018-06-04T18:12:52.148Z,38.10
2018-06-04T18:15:20.996Z,37.50
2018-06-04T18:17:49.835Z,37.70
2018-06-04T18:20:19.418Z,37.60
2018-06-04T18:22:48.251Z,38.00
2018-06-04T18:25:17.115Z,38.10
2018-06-04T18:27:45.951Z,38.00
2018-06-04T18:30:14.805Z,37.70
2018-06-04T18:32:44.381Z,38.10
2018-06-04T18:35:13.222Z,38.30
2018-06-04T18:37:42.042Z,38.70
2018-06-04T18:40:10.883Z,38.40
2018-06-04T18:42:40.479Z,38.40
2018-06-04T18:45:09.330Z,38.70
2018-06-04T18:47:38.188Z,38.80
2018-06-04T18:50:07.033Z,38.40
2018-06-04T18:55:04.529Z,38.40
2018-06-04T18:57:34.237Z,38.70
2018-06-04T19:00:03.083Z,39.20
2018-06-04T19:02:31.912Z,39.50
2018-06-04T19:05:01.493Z,39.30
2018-06-04T19:07:30.320Z,39.40
2018-06-04T19:09:59.169Z,39.90
2018-06-04T19:12:28.005Z,39.40
2018-06-04T19:14:56.919Z,39.30
2018-06-04T19:17:25.685Z,39.70
2018-06-04T19:19:54.529Z,39.80
2018-06-04T19:22:23.375Z,39.40
2018-06-04T19:24:52.215Z,39.70
2018-06-04T19:27:21.982Z,40.10
2018-06-04T19:29:50.841Z,40.40
2018-06-04T19:32:19.688Z,41.30
2018-06-04T19:34:48.517Z,41.70
2018-06-04T19:37:17.349Z,40.50
2018-06-04T19:39:46.188Z,40.60
2018-06-04T19:42:15.029Z,41.70
2018-06-04T19:44:43.875Z,41.30
2018-06-04T19:47:12.734Z,42.00
2018-06-04T19:49:41.586Z,42.00
2018-06-04T19:52:10.432Z,41.50
2018-06-04T19:54:40.045Z,41.40
2018-06-04T19:57:08.918Z,41.70
2018-06-04T19:59:38.491Z,42.00
2018-06-04T20:02:07.331Z,42.10
2018-06-04T20:04:36.166Z,42.40
2018-06-04T20:07:05.005Z,42.90
2018-06-04T20:09:33.862Z,43.30
2018-06-04T20:12:02.691Z,44.00
2018-06-04T20:14:31.526Z,44.00
2018-06-04T20:17:00.369Z,44.30
2018-06-04T20:19:29.214Z,44.70
2018-06-04T20:21:58.041Z,44.90
2018-06-04T20:24:26.870Z,45.10
2018-06-04T20:26:55.705Z,45.40
2018-06-04T20:29:25.312Z,45.70
2018-06-04T20:31:54.906Z,45.20
2018-06-04T20:34:23.849Z,45.50
2018-06-04T20:36:52.588Z,45.50
2018-06-04T20:39:22.164Z,46.00
2018-06-04T20:41:51.007Z,45.80
2018-06-04T20:44:19.847Z,46.00
2018-06-04T20:46:48.692Z,46.70
2018-06-04T20:49:18.263Z,46.70
2018-06-04T20:51:47.839Z,47.70
2018-06-04T20:54:16.667Z,47.30
2018-06-04T20:56:46.253Z,47.70
2018-06-04T20:59:15.092Z,47.70
2018-06-04T21:01:43.923Z,47.90
2018-06-04T21:04:12.761Z,48.20
2018-06-04T21:06:41.594Z,48.30
2018-06-04T21:09:10.460Z,48.60
2018-06-04T21:11:39.287Z,49.50
2018-06-04T21:14:08.117Z,49.20
2018-06-04T21:16:36.957Z,49.40
2018-06-04T21:19:05.790Z,49.70
2018-06-04T21:21:34.614Z,49.70
2018-06-04T21:24:03.453Z,49.80
2018-06-04T21:26:33.038Z,50.70
2018-06-04T21:29:01.877Z,50.40
2018-06-04T21:31:30.724Z,50.60
2018-06-04T21:33:59.571Z,50.80
2018-06-04T21:36:28.401Z,51.70
2018-06-04T21:38:57.245Z,51.30
2018-06-04T21:41:26.103Z,51.50
2018-06-04T21:43:56.023Z,51.70
2018-06-04T21:46:25.606Z,51.80
2018-06-04T21:48:54.450Z,52.00
2018-06-04T21:51:23.294Z,52.20
2018-06-04T21:53:52.139Z,52.50
2018-06-04T21:56:20.978Z,52.70
2018-06-04T21:58:49.805Z,52.80
2018-06-04T22:01:18.649Z,53.20
2018-06-04T22:03:47.519Z,53.30
2018-06-04T22:08:46.518Z,53.50
2018-06-04T22:11:15.352Z,53.90
2018-06-04T22:13:44.197Z,53.90
2018-06-04T22:16:13.042Z,54.10
2018-06-04T22:18:41.880Z,54.50
2018-06-04T22:21:10.712Z,54.70
2018-06-04T22:23:39.589Z,55.40
2018-06-04T22:26:08.422Z,54.80
2018-06-04T22:28:37.257Z,55.00
2018-06-04T22:31:06.848Z,55.30
2018-06-04T22:36:16.177Z,56.00
2018-06-04T22:38:45.014Z,56.30
2018-06-04T22:41:14.581Z,56.60
2018-06-04T22:43:43.412Z,56.70
2018-06-04T22:46:12.994Z,57.10
2018-06-04T22:48:41.843Z,57.30
2018-06-04T22:51:10.683Z,57.70
2018-06-04T22:53:39.531Z,57.90
2018-06-04T22:56:08.370Z,57.80
2018-06-04T22:58:37.949Z,57.80
2018-06-04T23:01:06.781Z,58.00
2018-06-04T23:03:35.617Z,58.10
2018-06-04T23:06:04.470Z,58.10
2018-06-04T23:08:33.306Z,58.40
2018-06-04T23:11:02.153Z,58.50
2018-06-04T23:13:30.988Z,58.70
2018-06-04T23:18:29.990Z,58.70
2018-06-04T23:20:58.824Z,58.80
2018-06-04T23:23:27.657Z,59.00
2018-06-04T23:25:56.496Z,59.20
2018-06-04T23:28:25.347Z,59.70
2018-06-04T23:30:54.175Z,59.50
2018-06-04T23:33:23.050Z,60.50
2018-06-04T23:35:52.643Z,60.10
2018-06-04T23:38:21.486Z,60.30
2018-06-04T23:40:50.314Z,60.50
2018-06-04T23:43:19.158Z,60.50
2018-06-04T23:45:48.002Z,60.70
2018-06-04T23:50:46.984Z,61.30
2018-06-04T23:53:15.809Z,61.90
2018-06-04T23:55:45.382Z,62.60
2018-06-04T23:58:14.219Z,62.50
